Time;durP1;ratioP1;P1;durP2;ratioP2;P2;SDS_P1;SDS_P2;PMS_P1;PMS_P2;Temp;Humidity;BMP_temperature;BMP_pressure;BME280_temperature;BME280_humidity;BME280_pressure;Samples;Min_cycle;Max_cycle;Signal;HPM_P1;HPM_P2
2022/09/09 00:00:16;;;;;;;15.03;13.53;;;;;;;16.13;96.26;93093.84;5081939;28;20251;-74
2022/09/09 00:03:11;;;;;;;14.33;13.13;;;;;;;16.19;96.28;93083.97;5076898;28;20210;-74
2022/09/09 00:05:55;;;;;;;14.07;12.77;;;;;;;16.30;95.56;93083.41;5091005;28;20223;-74
2022/09/09 00:08:28;;;;;;;14.43;13.20;;;;;;;16.27;95.84;93091.94;5090990;28;20187;-74
2022/09/09 00:11:01;;;;;;;16.17;14.50;;;;;;;16.32;95.20;93097.06;5090702;28;20220;-74
2022/09/09 00:13:51;;;;;;;15.80;14.30;;;;;;;16.13;96.47;93088.59;5086011;28;20194;-73
2022/09/09 00:16:24;;;;;;;15.60;13.70;;;;;;;16.24;96.51;93094.38;5081712;28;20209;-74
2022/09/09 00:18:56;;;;;;;15.83;14.27;;;;;;;16.24;96.15;93097.00;5087031;28;20264;-74
2022/09/09 00:21:31;;;;;;;16.93;13.47;;;;;;;16.09;96.32;93085.00;5089508;28;20188;-74
2022/09/09 00:23:58;;;;;;;15.47;14.17;;;;;;;16.27;96.32;93094.56;5089614;28;20216;-74
2022/09/09 00:26:36;;;;;;;14.63;13.43;;;;;;;16.21;96.33;93089.72;5090868;28;20192;-73
2022/09/09 00:29:08;;;;;;;15.03;13.83;;;;;;;16.42;95.45;93082.88;5089766;28;20220;-74
2022/09/09 00:31:34;;;;;;;14.83;13.53;;;;;;;16.19;96.16;93079.47;5096678;28;20295;-75
2022/09/09 00:34:13;;;;;;;15.30;13.83;;;;;;;16.13;97.34;93077.25;5090568;28;20212;-74
2022/09/09 00:36:40;;;;;;;15.33;13.90;;;;;;;16.02;97.84;93068.81;5090201;28;20180;-73
2022/09/09 00:39:31;;;;;;;16.03;14.63;;;;;;;15.91;98.80;93059.59;5078567;28;20233;-74
2022/09/09 00:42:17;;;;;;;15.73;14.17;;;;;;;16.08;97.65;93062.34;5078579;28;20210;-74
2022/09/09 00:45:13;;;;;;;15.13;13.67;;;;;;;16.09;97.09;93040.97;5086980;28;20225;-74
2022/09/09 00:47:39;;;;;;;15.00;13.50;;;;;;;16.12;97.08;93052.78;5073435;28;20185;-74
2022/09/09 00:50:32;;;;;;;14.70;13.50;;;;;;;16.17;96.86;93055.31;5088815;28;20334;-74
2022/09/09 00:53:03;;;;;;;15.43;14.07;;;;;;;16.07;97.04;93058.19;5088419;28;20188;-74
2022/09/09 00:55:57;;;;;;;15.20;13.90;;;;;;;16.17;96.61;93055.31;5089906;28;20213;-73
2022/09/09 00:58:23;;;;;;;14.00;12.83;;;;;;;16.11;96.70;93040.69;5080548;28;20200;-74
2022/09/09 01:00:54;;;;;;;16.53;15.03;;;;;;;16.10;96.85;93049.66;5090025;28;20242;-74
2022/09/09 01:03:35;;;;;;;15.20;13.70;;;;;;;16.07;97.29;93045.00;5089493;28;20215;-74
2022/09/09 01:06:26;;;;;;;15.53;14.17;;;;;;;15.96;98.16;93052.38;5089719;28;20204;-73
2022/09/09 01:08:54;;;;;;;14.83;13.63;;;;;;;15.95;98.03;93057.94;5077161;28;20243;-73
2022/09/09 01:11:25;;;;;;;15.60;14.10;;;;;;;15.97;98.20;93055.78;5089835;28;20227;-74
2022/09/09 01:14:03;;;;;;;16.00;14.60;;;;;;;16.02;97.76;93060.94;5088300;28;20239;-74
2022/09/09 01:16:31;;;;;;;15.30;13.90;;;;;;;16.06;97.50;93056.63;5089671;28;20173;-74
2022/09/09 01:18:59;;;;;;;16.23;14.83;;;;;;;15.98;97.44;93055.47;5082652;28;20224;-74
2022/09/09 01:21:47;;;;;;;15.07;13.73;;;;;;;15.92;97.55;93061.19;5076912;28;20189;-75
2022/09/09 01:24:19;;;;;;;15.27;12.90;;;;;;;15.96;97.71;93056.84;5079149;28;20217;-74
2022/09/09 01:26:47;;;;;;;15.67;14.47;;;;;;;15.99;97.51;93045.72;5093158;28;20191;-74
2022/09/09 01:29:15;;;;;;;15.40;14.10;;;;;;;16.05;96.92;93055.84;5089974;28;20222;-74
2022/09/09 01:32:01;;;;;;;15.07;13.87;;;;;;;15.97;97.85;93047.88;5081859;28;20237;-73
2022/09/09 01:34:33;;;;;;;15.80;14.40;;;;;;;15.86;97.24;93036.81;5088226;28;20229;-75
2022/09/09 01:37:11;;;;;;;15.37;14.13;;;;;;;16.03;96.89;93054.59;5089583;28;20184;-74
2022/09/09 01:39:38;;;;;;;15.63;14.13;;;;;;;16.05;96.70;93055.84;5077436;28;20216;-74
2022/09/09 01:42:07;;;;;;;15.00;13.57;;;;;;;16.01;97.29;93064.66;5089858;28;20208;-74
2022/09/09 01:44:34;;;;;;;14.43;13.23;;;;;;;16.01;96.25;93059.38;5083003;28;20232;-75
2022/09/09 01:47:00;;;;;;;16.17;14.57;;;;;;;16.08;96.27;93071.03;5089599;28;20196;-75
2022/09/09 01:49:25;;;;;;;15.20;13.70;;;;;;;16.16;95.99;93061.63;5084557;28;20773;-74
2022/09/09 01:51:55;;;;;;;15.00;13.70;;;;;;;16.03;96.52;93071.16;5089535;28;20474;-75
2022/09/09 01:54:24;;;;;;;15.47;13.93;;;;;;;15.83;97.05;93057.69;5085218;28;20236;-74
2022/09/09 01:57:14;;;;;;;15.17;13.70;;;;;;;15.91;97.21;93072.78;5075008;28;20212;-74
2022/09/09 02:00:07;;;;;;;15.03;13.60;;;;;;;15.87;97.73;93077.09;5085990;28;20228;-73
2022/09/09 02:03:05;;;;;;;15.67;14.03;;;;;;;15.91;97.76;93078.03;5071244;28;20182;-74
2022/09/09 02:05:37;;;;;;;13.77;12.57;;;;;;;16.14;96.34;93074.31;5081172;28;20227;-74
2022/09/09 02:08:26;;;;;;;14.93;13.53;;;;;;;15.99;97.45;93074.69;5093316;28;20181;-74
2022/09/09 02:11:28;;;;;;;14.60;13.40;;;;;;;15.80;98.31;93066.19;5092509;28;20256;-74
2022/09/09 02:14:01;;;;;;;15.07;13.87;;;;;;;15.64;98.84;93054.47;5031280;28;20252;-74
2022/09/09 02:16:33;;;;;;;15.47;14.03;;;;;;;15.75;98.42;93066.31;5083135;28;20192;-74
2022/09/09 02:19:01;;;;;;;15.27;13.80;;;;;;;15.76;98.41;93052.88;5093069;28;20228;-74
2022/09/09 02:21:28;;;;;;;15.53;14.23;;;;;;;15.60;98.37;93032.44;5093646;28;20195;-74
2022/09/09 02:23:57;;;;;;;15.67;14.27;;;;;;;15.67;98.78;93045.97;5088600;28;20235;-74
2022/09/09 02:26:23;;;;;;;15.27;14.07;;;;;;;15.66;98.71;93041.78;5093094;28;20291;-74
2022/09/09 02:28:51;;;;;;;16.80;15.30;;;;;;;15.58;99.37;93043.25;5092777;28;20177;-75
2022/09/09 02:31:19;;;;;;;15.33;14.00;;;;;;;15.56;99.69;93037.53;5093231;28;20183;-74
2022/09/09 02:33:52;;;;;;;14.87;13.57;;;;;;;15.72;99.09;93046.63;5092748;28;20184;-74
2022/09/09 02:36:19;;;;;;;15.60;14.20;;;;;;;15.59;98.97;93047.47;5092227;28;20180;-74
2022/09/09 02:38:50;;;;;;;16.60;15.20;;;;;;;15.62;98.84;93046.09;5087577;28;20181;-74
2022/09/09 02:41:19;;;;;;;16.40;14.80;;;;;;;15.66;99.07;93058.34;5093384;28;20175;-74
2022/09/09 02:43:45;;;;;;;16.60;15.20;;;;;;;15.64;98.54;93065.00;5091663;28;20269;-75
2022/09/09 02:46:32;;;;;;;14.63;13.33;;;;;;;15.69;98.68;93070.13;5092841;28;20709;-75
2022/09/09 02:49:06;;;;;;;17.60;16.10;;;;;;;15.70;98.05;93076.97;5089798;28;20234;-72
2022/09/09 02:52:06;;;;;;;17.80;16.20;;;;;;;15.56;98.65;93070.97;5091765;28;20181;-72
2022/09/09 02:54:36;;;;;;;17.57;15.83;;;;;;;15.55;98.72;93069.38;5083067;28;20240;-72
2022/09/09 02:57:31;;;;;;;17.13;15.57;;;;;;;15.50;99.10;93082.69;5092083;28;20184;-72
2022/09/09 02:59:58;;;;;;;17.20;15.50;;;;;;;15.35;100.00;93069.81;5074715;28;20212;-72
2022/09/09 03:02:24;;;;;;;17.33;15.83;;;;;;;15.47;99.87;93070.13;5083390;28;20189;-73
2022/09/09 03:04:52;;;;;;;18.23;16.53;;;;;;;15.37;99.32;93055.31;5089210;28;20338;-72
2022/09/09 03:07:18;;;;;;;17.23;15.73;;;;;;;15.34;99.49;93055.09;5091214;28;20211;-72
2022/09/09 03:09:44;;;;;;;16.73;15.23;;;;;;;15.38;100.00;93061.34;5089858;28;20228;-73
2022/09/09 03:12:11;;;;;;;17.20;15.67;;;;;;;15.34;100.00;93063.00;5091875;28;20188;-74
2022/09/09 03:14:37;;;;;;;16.40;15.10;;;;;;;15.27;99.87;93058.13;5093753;28;20251;-74
2022/09/09 03:17:04;;;;;;;17.07;15.43;;;;;;;15.33;100.00;93088.50;5091373;28;20180;-74
2022/09/09 03:19:30;;;;;;;16.37;14.97;;;;;;;15.35;100.00;93088.22;5084810;28;20239;-73
2022/09/09 03:21:55;;;;;;;16.73;15.33;;;;;;;14.97;100.00;93035.13;5085578;28;20180;-74
2022/09/09 03:24:22;;;;;;;16.67;14.93;;;;;;;15.25;100.00;93073.44;5082615;28;20225;-73
2022/09/09 03:26:48;;;;;;;16.07;14.57;;;;;;;15.27;100.00;93070.53;5089929;28;20181;-74
2022/09/09 03:29:14;;;;;;;17.17;15.63;;;;;;;15.36;99.84;93066.13;5084248;28;20219;-74
2022/09/09 03:31:40;;;;;;;17.13;15.63;;;;;;;15.23;100.00;93072.97;5091365;28;20185;-73
2022/09/09 03:34:05;;;;;;;16.83;15.37;;;;;;;15.19;100.00;93071.97;5085528;28;20244;-74
2022/09/09 03:36:31;;;;;;;17.50;15.77;;;;;;;15.33;99.58;93074.59;5080319;28;20189;-74
2022/09/09 03:38:57;;;;;;;17.00;15.47;;;;;;;15.20;100.00;93064.88;5090357;28;20232;-74
2022/09/09 03:41:24;;;;;;;17.73;16.07;;;;;;;15.05;100.00;93044.16;5089325;28;20187;-74
2022/09/09 03:43:53;;;;;;;18.13;16.07;;;;;;;15.17;100.00;93070.72;5090336;28;20208;-74
2022/09/09 03:46:24;;;;;;;17.30;15.90;;;;;;;15.25;100.00;93073.44;5088403;28;20173;-73
2022/09/09 03:48:49;;;;;;;18.97;17.17;;;;;;;15.04;100.00;93050.47;5090174;28;20176;-73
2022/09/09 03:51:15;;;;;;;18.43;15.70;;;;;;;15.21;100.00;93066.41;5091080;28;20193;-74
2022/09/09 03:53:41;;;;;;;18.20;15.10;;;;;;;15.15;100.00;93062.34;5090454;28;20169;-76
2022/09/09 03:56:07;;;;;;;16.90;15.40;;;;;;;15.11;100.00;93056.13;5090038;28;20172;-72
2022/09/09 03:58:35;;;;;;;16.93;15.43;;;;;;;15.13;100.00;93069.78;5088522;28;20181;-73
2022/09/09 04:01:03;;;;;;;18.17;16.63;;;;;;;15.10;100.00;93071.13;5090093;28;20183;-72
2022/09/09 04:03:30;;;;;;;17.07;15.60;;;;;;;14.96;100.00;93053.81;5088764;28;20204;-72
2022/09/09 04:05:57;;;;;;;15.90;14.43;;;;;;;15.19;100.00;93081.75;5081032;28;20237;-72
2022/09/09 04:08:25;;;;;;;16.17;14.60;;;;;;;15.31;100.00;93071.47;5089906;28;20185;-72
2022/09/09 04:10:50;;;;;;;15.27;13.77;;;;;;;15.28;100.00;93064.19;5089806;28;20231;-72
2022/09/09 04:13:17;;;;;;;15.37;14.07;;;;;;;15.50;99.77;93072.16;5086094;28;20260;-72
2022/09/09 04:15:43;;;;;;;16.30;14.60;;;;;;;15.61;98.05;93070.84;5085760;28;20242;-74
2022/09/09 04:18:09;;;;;;;15.60;14.40;;;;;;;15.53;99.00;93089.97;5086859;28;20181;-72
2022/09/09 04:20:35;;;;;;;15.80;14.50;;;;;;;15.49;99.87;93079.25;5089004;28;20247;-71
2022/09/09 04:23:00;;;;;;;17.27;15.47;;;;;;;15.44;100.00;93060.19;5084021;28;20203;-73
2022/09/09 04:25:26;;;;;;;18.23;16.50;;;;;;;15.55;99.74;93072.03;5089083;28;20231;-73
2022/09/09 04:27:56;;;;;;;20.40;16.50;;;;;;;15.64;99.63;93070.25;5082682;28;20164;-72
2022/09/09 04:30:22;;;;;;;18.27;16.37;;;;;;;15.69;99.04;93067.50;5085182;28;20222;-72
2022/09/09 04:32:47;;;;;;;18.07;16.33;;;;;;;15.76;97.44;93067.88;5089010;28;20279;-72
2022/09/09 04:35:13;;;;;;;18.73;16.83;;;;;;;15.76;97.87;93068.66;5085775;28;20228;-71
2022/09/09 04:37:39;;;;;;;16.83;14.40;;;;;;;15.88;97.20;93070.75;5089158;28;20191;-72
2022/09/09 04:40:05;;;;;;;17.83;15.90;;;;;;;15.77;98.15;93064.94;5089982;28;20247;-72
2022/09/09 04:42:35;;;;;;;17.13;15.30;;;;;;;15.88;98.28;93091.81;5090363;28;20191;-73
2022/09/09 04:45:01;;;;;;;18.10;15.77;;;;;;;15.68;99.29;93092.28;5089418;28;20228;-76
2022/09/09 04:47:26;;;;;;;17.30;15.33;;;;;;;16.05;97.83;93097.19;5088366;28;20196;-75
2022/09/09 04:49:54;;;;;;;17.93;16.23;;;;;;;16.11;96.78;93090.72;5087199;28;20236;-74
2022/09/09 04:52:20;;;;;;;16.67;15.20;;;;;;;16.27;96.33;93078.75;5082894;28;20757;-73
2022/09/09 04:54:45;;;;;;;17.13;15.63;;;;;;;16.39;95.58;93065.78;5083135;28;20229;-74
2022/09/09 05:03:45;;;;;;;17.03;15.47;;;;;;;16.39;95.34;93059.75;5135530;27;20311;-71
2022/09/09 05:06:15;;;;;;;18.30;16.80;;;;;;;16.50;96.28;93061.84;5082026;28;20441;-75
2022/09/09 05:08:42;;;;;;;17.27;15.77;;;;;;;16.66;95.37;93049.03;5082890;28;20271;-76
2022/09/09 05:11:19;;;;;;;18.00;16.50;;;;;;;16.81;94.27;93046.78;5086206;28;20185;-77
2022/09/09 05:13:44;;;;;;;16.80;15.10;;;;;;;16.83;94.69;93039.34;5083689;28;20219;-78
2022/09/09 05:16:13;;;;;;;18.50;16.97;;;;;;;16.68;93.91;93049.53;5061618;28;20174;-77
2022/09/09 05:18:40;;;;;;;18.90;16.67;;;;;;;16.92;92.32;93058.59;5067532;28;20229;-78
2022/09/09 05:21:06;;;;;;;18.30;16.40;;;;;;;17.15;91.98;93073.25;5086913;28;20188;-77
2022/09/09 05:23:33;;;;;;;16.53;15.10;;;;;;;17.49;88.27;93046.19;5089599;28;20214;-74
2022/09/09 05:25:59;;;;;;;17.83;16.43;;;;;;;17.46;87.70;93041.53;5084867;28;20193;-76
2022/09/09 05:28:26;;;;;;;17.47;15.97;;;;;;;17.22;88.65;93044.56;5085361;28;20185;-75
2022/09/09 05:31:00;;;;;;;20.33;18.27;;;;;;;17.14;90.20;93045.31;5085816;28;20238;-75
2022/09/09 05:33:27;;;;;;;18.03;16.50;;;;;;;17.45;89.14;93046.00;5083529;28;20212;-74
2022/09/09 05:36:01;;;;;;;19.23;17.53;;;;;;;17.56;87.52;93049.91;5089752;28;20223;-74
2022/09/09 05:38:27;;;;;;;19.43;17.30;;;;;;;17.60;87.43;93063.28;5089019;28;20189;-73
2022/09/09 05:40:52;;;;;;;18.30;16.60;;;;;;;17.53;87.18;93057.66;5088514;28;20225;-75
2022/09/09 05:43:22;;;;;;;20.03;18.03;;;;;;;17.73;86.39;93043.09;5090308;28;20303;-73
2022/09/09 05:45:48;;;;;;;19.53;17.43;;;;;;;17.77;85.24;93065.13;5086967;28;20229;-73
2022/09/09 05:48:17;;;;;;;22.20;18.03;;;;;;;17.73;86.07;93066.84;5089085;28;20208;-71
2022/09/09 05:50:44;;;;;;;20.97;18.97;;;;;;;17.80;86.27;93077.72;5086432;28;20251;-73
2022/09/09 05:53:10;;;;;;;24.57;19.27;;;;;;;18.05;85.42;93079.56;5087068;28;20186;-73
2022/09/09 05:55:36;;;;;;;20.77;18.80;;;;;;;18.37;82.01;93073.78;5081335;28;20285;-72
2022/09/09 05:58:02;;;;;;;23.63;17.20;;;;;;;18.31;82.57;93078.47;5084425;28;20200;-72
2022/09/09 06:00:27;;;;;;;19.23;17.50;;;;;;;18.56;80.71;93076.88;5086390;28;20216;-72
2022/09/09 06:02:53;;;;;;;20.93;18.37;;;;;;;18.54;80.64;93063.19;5081318;28;20292;-71
2022/09/09 06:05:19;;;;;;;22.47;17.90;;;;;;;18.33;81.19;93075.50;5087557;28;20234;-72
2022/09/09 06:07:45;;;;;;;20.77;16.53;;;;;;;18.62;80.17;93088.81;5086065;28;20212;-72
2022/09/09 06:10:13;;;;;;;19.53;17.47;;;;;;;18.45;80.79;93078.28;5085765;28;20222;-72
2022/09/09 06:12:39;;;;;;;20.13;16.97;;;;;;;18.72;79.76;93101.72;5086347;28;21704;-72
2022/09/09 06:15:05;;;;;;;23.47;17.10;;;;;;;18.92;78.00;93101.81;5071606;28;20290;-72
2022/09/09 06:17:30;;;;;;;16.40;14.83;;;;;;;19.09;76.64;93098.31;5071397;28;20186;-72
2022/09/09 06:19:56;;;;;;;16.60;15.10;;;;;;;18.82;78.16;93093.44;5073837;28;20240;-72
2022/09/09 06:22:22;;;;;;;16.50;14.90;;;;;;;18.85;77.85;93092.78;5072854;28;20214;-72
2022/09/09 06:24:47;;;;;;;16.57;13.93;;;;;;;18.73;77.51;93093.47;5073840;28;20233;-71
2022/09/09 06:27:13;;;;;;;16.47;14.47;;;;;;;19.17;75.60;93082.38;5063186;28;20199;-72
2022/09/09 06:29:39;;;;;;;16.83;15.23;;;;;;;19.21;75.90;93090.47;5060774;28;20224;-73
2022/09/09 06:32:04;;;;;;;15.90;14.57;;;;;;;19.49;75.11;93093.44;5063843;28;20276;-72
2022/09/09 06:34:30;;;;;;;16.67;15.17;;;;;;;19.42;74.43;93093.19;5075681;28;20267;-72
2022/09/09 06:36:57;;;;;;;15.43;14.10;;;;;;;19.75;73.69;93094.09;5075391;28;20314;-72
2022/09/09 06:39:23;;;;;;;15.00;13.40;;;;;;;19.65;74.22;93074.03;5073992;28;20249;-73
2022/09/09 06:41:49;;;;;;;15.37;14.10;;;;;;;19.58;73.49;93087.00;5074285;28;20211;-72
2022/09/09 06:44:15;;;;;;;15.37;14.10;;;;;;;19.92;73.46;93089.41;5062889;28;20287;-71
2022/09/09 06:46:41;;;;;;;14.57;13.40;;;;;;;19.78;73.05;93083.59;5050452;28;20178;-71
2022/09/09 06:49:08;;;;;;;14.83;13.43;;;;;;;19.72;73.14;93092.84;5050744;28;20236;-72
2022/09/09 06:51:37;;;;;;;15.83;12.90;;;;;;;19.73;72.25;93105.00;5049857;28;20248;-72
2022/09/09 06:54:03;;;;;;;15.63;14.13;;;;;;;20.21;70.37;93110.59;5054636;28;20231;-72
2022/09/09 06:56:32;;;;;;;14.80;13.27;;;;;;;20.22;69.85;93109.47;5076622;28;20199;-72
2022/09/09 06:59:03;;;;;;;14.83;13.53;;;;;;;20.17;70.89;93112.31;5074390;28;20235;-72
2022/09/09 07:01:33;;;;;;;15.63;13.80;;;;;;;20.47;69.20;93105.81;5069527;28;20244;-72
2022/09/09 07:04:00;;;;;;;15.30;13.73;;;;;;;20.57;68.85;93109.94;5104494;28;20252;-73
2022/09/09 07:06:31;;;;;;;14.80;13.43;;;;;;;20.30;70.17;93103.31;5072841;28;20201;-73
2022/09/09 07:09:04;;;;;;;14.80;13.33;;;;;;;20.53;71.41;93109.81;5071526;28;20275;-73
2022/09/09 07:11:32;;;;;;;15.77;14.23;;;;;;;21.19;66.77;93120.38;5068017;28;20246;-72
2022/09/09 07:13:59;;;;;;;15.88;14.10;;;;;;;21.14;66.69;93113.41;5068159;28;20228;-73
2022/09/09 07:16:27;;;;;;;15.60;13.97;;;;;;;21.31;65.89;93107.13;5072602;28;20192;-73
2022/09/09 07:18:57;;;;;;;15.95;13.98;;;;;;;21.21;65.90;93103.00;5072745;28;20263;-73
2022/09/09 07:21:24;;;;;;;15.30;13.85;;;;;;;20.38;69.15;93113.09;5073039;28;20226;-71
2022/09/09 07:23:49;;;;;;;15.63;14.23;;;;;;;20.92;67.56;93110.34;5071299;28;20211;-73
2022/09/09 07:26:19;;;;;;;14.00;12.80;;;;;;;21.44;65.35;93108.66;5072629;28;20903;-73
2022/09/09 07:28:45;;;;;;;16.10;14.60;;;;;;;21.43;65.86;93099.88;5071546;28;20275;-72
2022/09/09 07:31:16;;;;;;;15.27;13.75;;;;;;;21.15;67.96;93096.38;5071675;28;20177;-73
2022/09/09 07:33:42;;;;;;;15.20;13.88;;;;;;;21.24;66.75;93097.03;5070992;28;20276;-73
2022/09/09 07:36:16;;;;;;;14.48;13.27;;;;;;;21.82;64.70;93095.81;5070209;28;20177;-72
2022/09/09 07:38:46;;;;;;;13.73;12.52;;;;;;;21.77;64.40;93093.38;5066136;28;20213;-73
2022/09/09 07:41:15;;;;;;;15.30;13.70;;;;;;;21.64;66.16;93094.47;5070175;28;20188;-72
2022/09/09 07:43:42;;;;;;;14.07;12.98;;;;;;;21.87;65.42;93092.88;5065631;28;20223;-73
2022/09/09 07:46:08;;;;;;;14.63;13.15;;;;;;;22.10;63.46;93108.00;5071932;28;20205;-73
2022/09/09 07:48:34;;;;;;;13.98;12.68;;;;;;;22.25;63.94;93106.53;5071116;28;20252;-73
2022/09/09 07:51:18;;;;;;;14.32;12.93;;;;;;;21.88;64.37;93110.41;5068846;28;20215;-73
2022/09/09 07:53:44;;;;;;;13.88;12.68;;;;;;;22.08;63.88;93120.13;5070431;28;20177;-72
2022/09/09 07:56:12;;;;;;;14.65;13.40;;;;;;;21.99;64.47;93111.50;5074043;28;20219;-72
2022/09/09 07:58:39;;;;;;;14.30;13.20;;;;;;;22.20;63.54;93107.56;5068781;28;20255;-73
2022/09/09 08:01:11;;;;;;;15.25;13.07;;;;;;;22.53;63.46;93104.69;5074895;28;20183;-73
2022/09/09 08:03:36;;;;;;;13.80;12.50;;;;;;;22.84;63.33;93106.63;5064498;28;20223;-75
2022/09/09 08:06:07;;;;;;;16.30;15.05;;;;;;;23.20;60.90;93111.72;5061090;28;20194;-73
2022/09/09 08:08:35;;;;;;;14.48;13.18;;;;;;;23.00;60.59;93113.53;5059571;28;20885;-74
2022/09/09 08:11:07;;;;;;;13.82;12.43;;;;;;;23.14;60.76;93110.44;5072219;28;20246;-72
2022/09/09 08:13:33;;;;;;;14.07;12.88;;;;;;;23.08;61.13;93117.91;5062937;28;20189;-74
2022/09/09 08:16:11;;;;;;;13.93;12.48;;;;;;;23.17;59.53;93115.09;5045662;28;20211;-73
2022/09/09 08:18:37;;;;;;;13.48;12.40;;;;;;;23.16;59.75;93106.31;5045763;28;20201;-74
2022/09/09 08:21:14;;;;;;;13.52;12.48;;;;;;;23.14;60.90;93113.09;5042565;28;20194;-73
2022/09/09 08:23:41;;;;;;;14.73;13.40;;;;;;;23.23;60.60;93114.50;5051599;28;20216;-74
2022/09/09 08:26:37;;;;;;;14.02;12.77;;;;;;;23.33;58.76;93111.31;5075544;28;20196;-72
2022/09/09 08:29:05;;;;;;;14.27;12.85;;;;;;;22.52;61.58;93121.78;5051878;28;20231;-73
2022/09/09 08:31:33;;;;;;;14.13;12.93;;;;;;;23.08;59.15;93115.25;5063871;28;20194;-72
2022/09/09 08:33:59;;;;;;;14.43;13.23;;;;;;;23.48;58.21;93109.78;5066905;28;20230;-73
2022/09/09 08:36:28;;;;;;;14.05;12.55;;;;;;;23.67;56.39;93107.94;5067589;28;20240;-73
2022/09/09 08:38:55;;;;;;;14.80;12.45;;;;;;;23.78;56.77;93119.63;5066116;28;20227;-72
2022/09/09 08:41:39;;;;;;;14.43;12.98;;;;;;;24.03;56.54;93122.09;5068379;28;20315;-72
2022/09/09 08:44:24;;;;;;;12.98;11.95;;;;;;;23.92;56.60;93121.84;5068255;28;20257;-73
2022/09/09 08:47:23;;;;;;;13.85;12.45;;;;;;;23.90;56.37;93109.94;5063892;28;20277;-72
2022/09/09 08:49:55;;;;;;;13.60;12.30;;;;;;;23.17;58.35;93105.22;5097220;28;20227;-71
2022/09/09 08:52:30;;;;;;;13.63;12.23;;;;;;;23.69;55.29;93112.91;5067016;28;20266;-71
2022/09/09 08:55:14;;;;;;;13.38;12.15;;;;;;;23.60;57.76;93113.13;5067397;28;20223;-72
2022/09/09 08:57:39;;;;;;;12.75;11.48;;;;;;;23.86;55.86;93111.78;5068709;28;20185;-72
2022/09/09 09:00:10;;;;;;;12.40;11.20;;;;;;;24.07;55.00;93113.03;5068085;28;20220;-72
2022/09/09 09:03:19;;;;;;;13.77;11.50;;;;;;;24.27;53.72;93105.81;5066282;28;20232;-72
2022/09/09 09:06:12;;;;;;;13.65;12.27;;;;;;;23.78;55.18;93100.94;5048473;28;20241;-72
2022/09/09 09:08:52;;;;;;;13.65;12.52;;;;;;;24.51;54.81;93110.88;5069582;28;20302;-72
2022/09/09 09:11:18;;;;;;;12.70;11.60;;;;;;;24.48;53.42;93111.59;5067080;28;20187;-69
2022/09/09 09:14:02;;;;;;;12.90;11.80;;;;;;;24.63;51.59;93118.75;5069554;28;20287;-70
2022/09/09 09:16:38;;;;;;;13.52;12.27;;;;;;;24.10;53.33;93112.34;5062822;28;20194;-70
2022/09/09 09:19:04;;;;;;;14.15;12.68;;;;;;;24.09;54.07;93099.34;5075861;28;20231;-69
2022/09/09 09:21:43;;;;;;;13.15;11.93;;;;;;;24.32;53.28;93106.31;5073956;28;20199;-69
2022/09/09 09:24:23;;;;;;;12.63;11.63;;;;;;;23.68;55.55;93096.16;5058864;28;20460;-70
2022/09/09 09:26:49;;;;;;;15.23;12.20;;;;;;;24.54;53.09;93105.63;5046868;28;20194;-70
2022/09/09 09:29:17;;;;;;;13.38;12.18;;;;;;;24.43;53.22;93109.19;5038261;28;20805;-73
2022/09/09 09:31:48;;;;;;;12.48;11.55;;;;;;;23.98;55.29;93106.34;5043526;28;20247;-69
2022/09/09 09:34:13;;;;;;;13.73;12.43;;;;;;;23.94;53.91;93110.81;5044021;28;20229;-69
2022/09/09 09:36:42;;;;;;;11.70;10.93;;;;;;;23.97;53.71;93107.50;5042340;28;20203;-71
2022/09/09 09:39:09;;;;;;;13.23;11.93;;;;;;;24.19;52.53;93104.16;5052554;28;20246;-72
2022/09/09 09:41:45;;;;;;;16.55;12.48;;;;;;;24.34;52.04;93092.63;5067204;28;20187;-70
2022/09/09 09:44:25;;;;;;;13.95;12.75;;;;;;;24.25;52.72;93102.75;5060575;28;20231;-70
2022/09/09 09:46:51;;;;;;;13.45;12.00;;;;;;;24.42;52.77;93102.31;5065363;28;20184;-70
2022/09/09 09:49:17;;;;;;;13.32;12.13;;;;;;;24.21;52.60;93091.22;5098594;28;20229;-70
2022/09/09 09:51:43;;;;;;;11.98;11.10;;;;;;;25.15;51.10;93093.00;5071738;28;20294;-69
2022/09/09 09:54:15;;;;;;;13.38;12.10;;;;;;;25.06;50.55;93097.03;5071086;28;20240;-70
2022/09/09 09:56:42;;;;;;;12.35;11.35;;;;;;;24.98;51.24;93093.47;5070301;28;20764;-70
2022/09/09 09:59:34;;;;;;;13.25;12.18;;;;;;;25.21;47.78;93088.16;5070265;28;20225;-70
2022/09/09 10:02:18;;;;;;;12.27;11.13;;;;;;;24.52;50.31;93086.50;5068975;28;20246;-72
2022/09/09 10:04:45;;;;;;;12.60;11.60;;;;;;;25.04;48.73;93088.63;5071913;28;20223;-73
2022/09/09 10:07:22;;;;;;;12.70;11.57;;;;;;;24.60;50.64;93079.41;5078669;28;20187;-72
2022/09/09 10:09:57;;;;;;;12.45;11.40;;;;;;;24.47;50.36;93086.00;5059846;28;20240;-72
2022/09/09 10:12:51;;;;;;;13.85;12.40;;;;;;;24.70;49.61;93089.53;5043861;28;20186;-72
2022/09/09 10:15:25;;;;;;;12.07;11.07;;;;;;;24.49;50.42;93092.56;5064785;28;20224;-73
2022/09/09 10:17:56;;;;;;;13.02;11.82;;;;;;;24.30;50.70;93095.22;5071486;28;20191;-72
2022/09/09 10:20:37;;;;;;;13.00;11.85;;;;;;;24.20;53.65;93095.78;5070803;28;20216;-73
2022/09/09 10:23:30;;;;;;;12.88;11.85;;;;;;;24.42;50.79;93097.00;5071496;28;20263;-72
2022/09/09 10:26:14;;;;;;;13.45;12.15;;;;;;;24.49;50.18;93102.44;5068608;28;20224;-71
2022/09/09 10:29:11;;;;;;;12.48;11.50;;;;;;;24.07;53.17;93096.25;5071161;28;20195;-72
2022/09/09 10:31:57;;;;;;;11.88;10.88;;;;;;;24.13;51.69;93090.28;5065325;28;21131;-73
2022/09/09 10:34:41;;;;;;;13.75;11.43;;;;;;;23.86;52.25;93093.88;5073720;28;20224;-72
2022/09/09 10:37:28;;;;;;;12.65;11.45;;;;;;;23.82;53.21;93078.91;5070598;28;20202;-77
2022/09/09 10:40:20;;;;;;;14.77;13.13;;;;;;;24.04;53.15;93096.94;5056956;28;20272;-73
2022/09/09 10:42:46;;;;;;;13.18;11.88;;;;;;;24.01;52.79;93097.66;5048185;28;20236;-74
2022/09/09 10:45:34;;;;;;;13.45;12.15;;;;;;;23.60;52.49;93097.13;5050100;28;20252;-73
2022/09/09 10:48:02;;;;;;;13.43;12.32;;;;;;;23.78;52.83;93100.19;5049852;28;20185;-73
2022/09/09 10:50:48;;;;;;;12.38;11.07;;;;;;;23.80;55.60;93089.19;5075227;28;20941;-73
2022/09/09 10:53:42;;;;;;;12.43;11.32;;;;;;;24.15;52.29;93103.28;5072800;28;20174;-73
2022/09/09 10:56:12;;;;;;;14.15;12.82;;;;;;;23.83;52.43;93056.47;5066434;28;20219;-73
2022/09/09 10:58:38;;;;;;;12.88;11.68;;;;;;;24.07;51.65;93096.25;5077230;28;20209;-73
2022/09/09 11:01:13;;;;;;;13.95;10.48;;;;;;;23.97;53.69;93078.91;5050906;28;20179;-72
2022/09/09 11:03:41;;;;;;;12.60;11.60;;;;;;;23.35;54.79;93092.31;5051966;28;20288;-73
2022/09/09 11:06:17;;;;;;;14.13;11.75;;;;;;;23.57;54.40;93097.03;5081167;28;20266;-73
2022/09/09 11:08:43;;;;;;;13.10;12.05;;;;;;;23.57;55.74;93099.69;5084291;28;20196;-73
2022/09/09 11:11:22;;;;;;;13.40;12.18;;;;;;;22.82;56.69;93095.56;5079363;28;20206;-73
2022/09/09 11:14:20;;;;;;;13.93;12.48;;;;;;;23.01;57.06;93099.09;5064904;28;20301;-73
2022/09/09 11:17:13;;;;;;;13.25;11.98;;;;;;;23.49;57.23;93095.31;5047866;28;20194;-72
2022/09/09 11:19:40;;;;;;;14.07;12.63;;;;;;;23.33;54.57;93095.34;5054487;28;20232;-73
2022/09/09 11:22:30;;;;;;;13.45;12.45;;;;;;;23.80;54.48;93087.25;5067634;28;20239;-73
2022/09/09 11:25:15;;;;;;;14.07;12.88;;;;;;;23.93;55.60;93075.38;5075062;28;20203;-73
2022/09/09 11:28:01;;;;;;;13.10;11.95;;;;;;;24.55;54.91;93079.69;5070609;28;20191;-73
2022/09/09 11:30:37;;;;;;;13.68;12.48;;;;;;;24.86;53.23;93080.28;5053125;28;20220;-73
2022/09/09 11:33:29;;;;;;;14.75;13.40;;;;;;;25.04;52.69;93067.25;5044035;28;20244;-73
2022/09/09 11:36:17;;;;;;;13.38;12.05;;;;;;;24.97;52.08;93054.53;5069670;28;20224;-73
2022/09/09 11:38:48;;;;;;;12.70;11.70;;;;;;;24.13;54.37;93052.16;5066839;28;20211;-73
2022/09/09 11:41:15;;;;;;;15.73;11.32;;;;;;;23.74;55.86;93060.09;5069271;28;20188;-73
2022/09/09 11:43:46;;;;;;;13.82;12.63;;;;;;;24.03;54.90;93061.50;5070197;28;20224;-73
2022/09/09 11:46:17;;;;;;;13.52;11.43;;;;;;;24.14;54.37;93045.72;5070053;28;20186;-73